createdAt,value
2024-05-09T00:00:06.439Z,22.36
2024-05-09T00:02:54.643Z,22.35
2024-05-09T00:05:41.884Z,22.29
2024-05-09T00:08:29.701Z,22.26
2024-05-09T00:11:20.815Z,22.25
2024-05-09T00:14:09.456Z,22.25
2024-05-09T00:16:55.661Z,22.26
2024-05-09T00:19:44.943Z,22.26
2024-05-09T00:22:32.683Z,22.30
2024-05-09T00:25:23.523Z,22.28
2024-05-09T00:28:09.914Z,22.36
2024-05-09T00:30:56.300Z,22.41
2024-05-09T00:33:42.932Z,22.42
2024-05-09T00:36:29.729Z,22.48
2024-05-09T00:39:16.303Z,22.47
2024-05-09T00:42:02.586Z,22.42
2024-05-09T00:44:49.275Z,22.45
2024-05-09T00:47:36.283Z,22.43
2024-05-09T00:50:29.937Z,22.42
2024-05-09T00:53:22.446Z,22.44
2024-05-09T00:56:10.002Z,22.43
2024-05-09T00:58:56.579Z,22.46
2024-05-09T01:01:48.782Z,22.37
2024-05-09T01:04:35.516Z,22.48
2024-05-09T01:07:22.044Z,22.49
2024-05-09T01:10:14.222Z,22.47
2024-05-09T01:13:07.925Z,22.50
2024-05-09T01:15:55.698Z,22.51
2024-05-09T01:18:42.081Z,22.51
2024-05-09T01:21:28.445Z,22.50
2024-05-09T01:24:14.924Z,22.51
2024-05-09T01:27:01.190Z,22.51
2024-05-09T01:29:47.518Z,22.50
2024-05-09T01:32:34.008Z,22.49
2024-05-09T01:35:23.868Z,22.49
2024-05-09T01:38:12.920Z,22.47
2024-05-09T01:40:59.793Z,22.45
2024-05-09T01:43:46.233Z,22.42
2024-05-09T01:46:32.415Z,22.40
2024-05-09T01:49:19.142Z,22.36
2024-05-09T01:52:05.747Z,22.35
2024-05-09T01:54:51.998Z,22.32
2024-05-09T01:57:38.423Z,22.35
2024-05-09T02:00:36.944Z,22.34
2024-05-09T02:03:27.103Z,22.29
2024-05-09T02:06:14.123Z,22.31
2024-05-09T02:09:00.415Z,22.30
2024-05-09T02:11:49.110Z,22.28
2024-05-09T02:14:35.546Z,22.24
2024-05-09T02:17:22.651Z,22.23
2024-05-09T02:20:13.242Z,22.19
2024-05-09T02:23:04.230Z,21.96
2024-05-09T02:25:51.144Z,22.16
2024-05-09T02:28:37.466Z,22.14
2024-05-09T02:31:23.706Z,22.10
2024-05-09T02:34:10.183Z,22.02
2024-05-09T02:36:56.572Z,22.03
2024-05-09T02:39:42.712Z,22.00
2024-05-09T02:42:28.904Z,21.97
2024-05-09T02:45:15.227Z,21.89
2024-05-09T02:48:02.138Z,21.91
2024-05-09T02:50:48.898Z,21.92
2024-05-09T02:53:35.373Z,21.88
2024-05-09T02:56:22.607Z,21.90
2024-05-09T02:59:08.781Z,21.86
2024-05-09T03:01:55.310Z,21.89
2024-05-09T03:04:43.042Z,21.89
2024-05-09T03:07:29.351Z,21.91
2024-05-09T03:10:22.262Z,21.92
2024-05-09T03:13:14.950Z,21.92
2024-05-09T03:16:02.517Z,21.92
2024-05-09T03:18:49.004Z,21.92
2024-05-09T03:21:40.274Z,21.89
2024-05-09T03:24:26.398Z,21.92
2024-05-09T03:27:12.704Z,21.92
2024-05-09T03:29:59.096Z,21.90
2024-05-09T03:32:45.542Z,21.86
2024-05-09T03:35:32.040Z,21.86
2024-05-09T03:38:18.722Z,21.80
2024-05-09T03:41:10.786Z,21.77
2024-05-09T03:43:57.067Z,21.78
2024-05-09T03:46:44.583Z,21.79
2024-05-09T03:49:30.732Z,21.76
2024-05-09T03:52:18.092Z,21.76
2024-05-09T03:55:04.390Z,21.77
2024-05-09T03:57:50.904Z,21.77
2024-05-09T04:00:39.415Z,21.79
2024-05-09T04:03:28.208Z,21.78
2024-05-09T04:06:24.519Z,21.73
2024-05-09T04:09:10.753Z,21.78
2024-05-09T04:11:58.708Z,21.78
2024-05-09T04:14:45.093Z,21.79
2024-05-09T04:17:31.719Z,21.80
2024-05-09T04:20:29.090Z,21.82
2024-05-09T04:23:25.481Z,21.77
2024-05-09T04:26:14.148Z,21.78
2024-05-09T04:29:00.608Z,21.79
2024-05-09T04:31:47.149Z,21.79
2024-05-09T04:34:35.401Z,21.79
2024-05-09T04:37:21.656Z,21.85
2024-05-09T04:40:14.187Z,21.84
2024-05-09T04:43:07.658Z,21.86
2024-05-09T04:45:54.292Z,21.90
2024-05-09T04:48:40.503Z,21.86
2024-05-09T04:51:26.667Z,21.88
2024-05-09T04:54:25.792Z,21.85
2024-05-09T04:57:16.809Z,21.56
2024-05-09T05:00:07.243Z,21.75
2024-05-09T05:02:55.889Z,21.76
2024-05-09T05:05:42.415Z,21.79
2024-05-09T05:08:29.774Z,21.79
2024-05-09T05:11:16.684Z,21.83
2024-05-09T05:14:03.297Z,21.84
2024-05-09T05:16:49.571Z,21.89
2024-05-09T05:19:36.076Z,21.88
2024-05-09T05:22:22.152Z,21.88
2024-05-09T05:25:08.520Z,21.89
2024-05-09T05:27:54.818Z,21.91
2024-05-09T05:30:41.887Z,21.92
2024-05-09T05:33:28.507Z,21.93
2024-05-09T05:36:14.751Z,21.88
2024-05-09T05:39:00.954Z,21.93
2024-05-09T05:41:47.407Z,21.96
2024-05-09T05:44:33.936Z,22.02
2024-05-09T05:47:20.204Z,22.07
2024-05-09T05:50:17.598Z,22.12
2024-05-09T05:53:10.728Z,21.83
2024-05-09T05:55:57.595Z,22.11
2024-05-09T05:58:43.833Z,22.09
2024-05-09T06:01:30.191Z,22.04
2024-05-09T06:04:16.589Z,22.04
2024-05-09T06:07:03.143Z,22.01
2024-05-09T06:09:50.463Z,21.99
2024-05-09T06:12:37.508Z,21.97
2024-05-09T06:15:23.493Z,21.94
2024-05-09T06:18:11.678Z,21.90
2024-05-09T06:20:59.390Z,21.88
2024-05-09T06:23:49.841Z,21.83
2024-05-09T06:26:36.283Z,21.87
2024-05-09T06:29:22.650Z,21.87
2024-05-09T06:32:10.003Z,21.85
2024-05-09T06:34:58.627Z,21.86
2024-05-09T06:37:51.698Z,21.73
2024-05-09T06:41:03.723Z,21.75
2024-05-09T06:43:50.387Z,21.82
2024-05-09T06:46:40.291Z,21.85
2024-05-09T06:49:29.324Z,21.84
2024-05-09T06:52:15.401Z,21.89
2024-05-09T06:55:01.886Z,21.92
2024-05-09T06:57:48.307Z,21.97
2024-05-09T07:00:39.255Z,22.02
2024-05-09T07:03:27.971Z,22.04
2024-05-09T07:06:14.265Z,22.09
2024-05-09T07:09:00.579Z,22.11
2024-05-09T07:11:47.090Z,22.18
2024-05-09T07:14:34.747Z,22.25
2024-05-09T07:17:23.614Z,22.29
2024-05-09T07:20:16.575Z,22.36
2024-05-09T07:23:10.903Z,22.42
2024-05-09T07:25:58.313Z,22.43
2024-05-09T07:28:44.681Z,22.50
2024-05-09T07:31:31.541Z,22.55
2024-05-09T07:34:18.157Z,22.55
2024-05-09T07:37:06.356Z,22.57
2024-05-09T07:39:52.368Z,22.64
2024-05-09T07:42:39.005Z,22.66
2024-05-09T07:45:43.039Z,22.56
2024-05-09T07:50:33.283Z,22.63
2024-05-09T07:54:31.250Z,22.68
2024-05-09T07:57:18.542Z,22.75
2024-05-09T08:00:06.528Z,22.81
2024-05-09T08:02:53.247Z,22.90
2024-05-09T08:05:39.364Z,22.94
2024-05-09T08:08:27.161Z,23.04
2024-05-09T08:11:13.626Z,23.09
2024-05-09T08:14:01.970Z,23.13
2024-05-09T08:16:48.249Z,23.19
2024-05-09T08:19:37.791Z,23.18
2024-05-09T08:22:23.965Z,23.16
2024-05-09T08:25:13.440Z,23.15
2024-05-09T08:28:00.320Z,23.15
2024-05-09T08:30:46.925Z,23.18
2024-05-09T08:33:33.803Z,23.16
2024-05-09T08:36:22.345Z,23.14
2024-05-09T08:39:08.765Z,23.16
2024-05-09T08:41:55.220Z,23.16
2024-05-09T08:44:41.556Z,23.15
2024-05-09T08:47:33.020Z,23.15
2024-05-09T08:50:28.957Z,23.16
2024-05-09T08:53:22.385Z,22.99
2024-05-09T08:56:12.454Z,23.02
2024-05-09T08:59:02.124Z,23.00
2024-05-09T09:01:49.954Z,22.98
2024-05-09T09:04:38.748Z,22.99
2024-05-09T09:07:25.947Z,23.03
2024-05-09T09:10:17.827Z,23.15
2024-05-09T09:13:11.419Z,23.20
2024-05-09T09:15:59.388Z,23.27
2024-05-09T09:18:46.529Z,23.33
2024-05-09T09:21:33.222Z,23.37
2024-05-09T09:24:19.311Z,23.39
2024-05-09T09:27:06.591Z,23.38
2024-05-09T09:29:53.282Z,23.46
2024-05-09T09:32:39.556Z,23.52
2024-05-09T09:35:29.065Z,23.44
2024-05-09T09:38:19.045Z,23.43
2024-05-09T09:41:08.718Z,23.49
2024-05-09T09:43:56.262Z,23.49
2024-05-09T09:46:42.539Z,23.48
2024-05-09T09:49:33.823Z,23.48
2024-05-09T09:52:21.995Z,23.42
2024-05-09T09:55:10.177Z,23.44
2024-05-09T09:57:56.780Z,23.46
2024-05-09T10:00:43.568Z,23.53
2024-05-09T10:03:30.620Z,23.45
2024-05-09T10:06:17.986Z,23.38
2024-05-09T10:09:04.432Z,23.38
2024-05-09T10:11:59.389Z,23.32
2024-05-09T10:14:50.445Z,23.41
2024-05-09T10:17:36.709Z,23.38
2024-05-09T10:20:28.151Z,23.42
2024-05-09T10:23:36.359Z,23.38
2024-05-09T10:26:35.278Z,23.68
2024-05-09T10:29:24.128Z,23.86
2024-05-09T10:32:10.783Z,24.02
2024-05-09T10:35:09.558Z,23.81
2024-05-09T10:37:56.383Z,24.04
2024-05-09T10:40:43.568Z,24.01
2024-05-09T10:43:32.029Z,24.11
2024-05-09T10:46:21.720Z,24.18
2024-05-09T10:49:09.340Z,24.30
2024-05-09T10:51:56.021Z,24.22
2024-05-09T10:54:42.381Z,24.06
2024-05-09T10:57:40.926Z,24.05
2024-05-09T11:00:36.392Z,24.02
2024-05-09T11:03:24.315Z,24.04
2024-05-09T11:06:11.966Z,23.98
2024-05-09T11:08:58.627Z,23.80
2024-05-09T11:11:45.138Z,23.82
2024-05-09T11:14:31.523Z,23.78
2024-05-09T11:17:17.942Z,23.88
2024-05-09T11:20:13.326Z,23.86
2024-05-09T11:23:07.215Z,24.01
2024-05-09T11:25:56.028Z,24.11
2024-05-09T11:28:46.758Z,24.14
2024-05-09T11:31:33.398Z,24.23
2024-05-09T11:34:19.769Z,24.34
2024-05-09T11:37:06.213Z,24.46
2024-05-09T11:39:54.057Z,24.58
2024-05-09T11:42:40.626Z,24.63
2024-05-09T11:45:26.948Z,24.62
2024-05-09T11:48:13.393Z,24.61
2024-05-09T11:50:59.621Z,24.56
2024-05-09T11:53:45.795Z,24.62
2024-05-09T11:56:32.381Z,24.80
2024-05-09T11:59:20.115Z,24.83
2024-05-09T12:02:07.830Z,25.05
2024-05-09T12:04:54.169Z,25.19
2024-05-09T12:07:40.697Z,25.39
2024-05-09T12:10:33.099Z,25.54
2024-05-09T12:13:22.130Z,25.67
2024-05-09T12:16:09.441Z,25.83
2024-05-09T12:18:56.306Z,26.00
2024-05-09T12:21:42.778Z,26.21
2024-05-09T12:24:29.217Z,26.38
2024-05-09T12:27:15.666Z,26.56
2024-05-09T12:30:01.721Z,26.67
2024-05-09T12:32:49.733Z,26.74
2024-05-09T12:35:36.427Z,26.94
2024-05-09T12:38:26.235Z,27.16
2024-05-09T12:41:14.316Z,27.34
2024-05-09T12:44:00.809Z,27.48
2024-05-09T12:46:47.518Z,27.70
2024-05-09T12:49:33.913Z,28.00
2024-05-09T12:52:20.468Z,28.22
2024-05-09T12:55:07.066Z,28.31
2024-05-09T12:57:54.914Z,28.47
2024-05-09T13:00:41.638Z,28.75
2024-05-09T13:03:28.217Z,29.20
2024-05-09T13:06:14.439Z,29.39
2024-05-09T13:09:00.888Z,29.74
2024-05-09T13:11:47.236Z,30.16
2024-05-09T13:14:34.663Z,30.35
2024-05-09T13:17:25.275Z,30.33
2024-05-09T13:20:18.660Z,30.30
2024-05-09T13:23:11.994Z,30.25
2024-05-09T13:25:58.327Z,30.36
2024-05-09T13:28:45.179Z,30.54
2024-05-09T13:31:31.759Z,30.74
2024-05-09T13:34:18.018Z,30.97
2024-05-09T13:37:04.611Z,31.27
2024-05-09T13:39:50.921Z,31.68
2024-05-09T13:42:37.230Z,32.11
2024-05-09T13:45:23.563Z,32.45
2024-05-09T13:48:10.546Z,32.82
2024-05-09T13:50:57.636Z,33.29
2024-05-09T13:53:43.746Z,33.71
2024-05-09T13:56:29.923Z,34.19
2024-05-09T13:59:16.329Z,34.18
2024-05-09T14:02:02.745Z,33.82
2024-05-09T14:04:49.505Z,33.41
2024-05-09T14:07:36.231Z,33.58
2024-05-09T14:10:28.661Z,33.99
2024-05-09T14:13:17.803Z,34.58
2024-05-09T14:16:04.602Z,35.04
2024-05-09T14:18:51.200Z,35.50
2024-05-09T14:21:37.756Z,35.92
2024-05-09T14:24:24.294Z,36.03
2024-05-09T14:27:10.628Z,36.30
2024-05-09T14:29:58.710Z,36.54
2024-05-09T14:32:44.871Z,36.35
2024-05-09T14:35:31.222Z,36.24
2024-05-09T14:38:17.504Z,36.01
2024-05-09T14:41:04.167Z,35.85
2024-05-09T14:43:50.893Z,35.81
2024-05-09T14:46:37.456Z,35.73
2024-05-09T14:49:23.969Z,35.62
2024-05-09T14:52:10.427Z,35.46
2024-05-09T14:57:46.032Z,35.04
2024-05-09T15:00:35.981Z,34.55
2024-05-09T15:03:23.761Z,34.22
2024-05-09T15:06:10.281Z,33.85
2024-05-09T15:08:57.858Z,33.60
2024-05-09T15:11:44.375Z,33.58
2024-05-09T15:14:36.030Z,33.21
2024-05-09T15:17:22.656Z,32.31
2024-05-09T15:20:26.802Z,31.43
2024-05-09T15:23:18.518Z,30.30
2024-05-09T15:26:05.290Z,29.81
2024-05-09T15:28:51.258Z,29.74
2024-05-09T15:31:37.579Z,29.77
2024-05-09T15:34:23.922Z,29.63
2024-05-09T15:37:10.366Z,29.32
2024-05-09T15:39:56.616Z,28.98
2024-05-09T15:42:43.347Z,28.66
2024-05-09T15:45:30.928Z,28.35
2024-05-09T15:48:17.937Z,27.89
2024-05-09T15:51:04.499Z,27.59
2024-05-09T15:53:51.018Z,27.05
2024-05-09T15:56:38.463Z,26.68
2024-05-09T15:59:24.453Z,26.46
2024-05-09T16:02:12.334Z,26.18
2024-05-09T16:04:59.055Z,25.81
2024-05-09T16:07:45.464Z,25.68
2024-05-09T16:10:34.585Z,25.44
2024-05-09T16:13:22.039Z,25.22
2024-05-09T16:19:13.797Z,24.98
2024-05-09T16:22:00.702Z,24.93
2024-05-09T16:24:47.616Z,24.80
2024-05-09T16:27:34.041Z,24.75
2024-05-09T16:30:27.882Z,24.56
2024-05-09T16:33:24.099Z,24.46
2024-05-09T16:36:10.587Z,24.19
2024-05-09T16:38:58.267Z,24.13
2024-05-09T16:41:44.481Z,23.90
2024-05-09T16:44:32.426Z,23.92
2024-05-09T16:47:19.814Z,23.87
2024-05-09T16:50:08.506Z,23.81
2024-05-09T16:52:55.105Z,23.85
2024-05-09T16:55:41.671Z,23.85
2024-05-09T16:58:28.239Z,23.84
2024-05-09T17:01:17.908Z,23.74
2024-05-09T17:04:04.766Z,23.73
2024-05-09T17:06:51.440Z,23.69
2024-05-09T17:09:37.623Z,23.66
2024-05-09T17:12:26.097Z,23.64
2024-05-09T17:15:12.542Z,23.59
2024-05-09T17:17:59.130Z,23.56
2024-05-09T17:20:50.464Z,23.45
2024-05-09T17:23:37.121Z,23.45
2024-05-09T17:26:23.864Z,23.41
2024-05-09T17:29:12.483Z,23.37
2024-05-09T17:31:59.243Z,23.41
2024-05-09T17:34:45.417Z,23.38
2024-05-09T17:37:31.831Z,23.26
2024-05-09T17:40:27.118Z,23.26
2024-05-09T17:43:17.766Z,23.17
2024-05-09T17:46:04.599Z,23.04
2024-05-09T17:48:51.104Z,22.97
2024-05-09T17:51:37.643Z,22.91
2024-05-09T17:54:24.969Z,22.86
2024-05-09T17:57:12.945Z,22.83
2024-05-09T18:00:00.715Z,22.85
2024-05-09T18:02:48.826Z,22.81
2024-05-09T18:05:37.664Z,22.57
2024-05-09T18:08:25.979Z,22.49
2024-05-09T18:11:13.151Z,22.53
2024-05-09T18:13:59.530Z,22.43
2024-05-09T18:16:46.180Z,22.41
2024-05-09T18:19:33.117Z,22.38
2024-05-09T18:22:19.877Z,22.33
2024-05-09T18:25:07.051Z,22.22
2024-05-09T18:27:53.400Z,22.10
2024-05-09T18:30:41.378Z,22.07
2024-05-09T18:33:27.812Z,22.06
2024-05-09T18:36:14.173Z,22.03
2024-05-09T18:39:00.874Z,21.94
2024-05-09T18:41:47.679Z,21.92
2024-05-09T18:44:34.214Z,21.84
2024-05-09T18:47:20.689Z,21.82
2024-05-09T18:50:14.308Z,21.75
2024-05-09T18:53:06.537Z,21.76
2024-05-09T18:55:53.314Z,21.69
2024-05-09T18:58:40.117Z,21.70
2024-05-09T19:01:26.789Z,21.69
2024-05-09T19:04:13.668Z,21.70
2024-05-09T19:07:04.420Z,21.74
2024-05-09T19:09:51.098Z,21.65
2024-05-09T19:12:37.540Z,21.70
2024-05-09T19:15:23.743Z,21.67
2024-05-09T19:18:11.080Z,21.56
2024-05-09T19:20:57.783Z,21.56
2024-05-09T19:23:50.570Z,21.54
2024-05-09T19:26:38.436Z,21.53
2024-05-09T19:29:25.200Z,21.57
2024-05-09T19:32:11.523Z,21.47
2024-05-09T19:34:57.690Z,21.50
2024-05-09T19:37:45.164Z,21.46
2024-05-09T19:40:33.631Z,21.39
2024-05-09T19:43:21.602Z,21.37
2024-05-09T19:46:08.098Z,21.36
2024-05-09T19:48:55.884Z,21.42
2024-05-09T19:51:42.572Z,21.42
2024-05-09T19:54:29.890Z,21.40
2024-05-09T19:57:19.676Z,21.30
2024-05-09T20:00:12.113Z,21.32
2024-05-09T20:03:01.421Z,21.22
2024-05-09T20:05:48.584Z,21.18
2024-05-09T20:08:36.605Z,21.20
2024-05-09T20:11:22.661Z,21.17
2024-05-09T20:14:09.077Z,21.16
2024-05-09T20:16:56.917Z,21.17
2024-05-09T20:19:44.722Z,21.07
2024-05-09T20:22:31.277Z,21.12
2024-05-09T20:25:18.005Z,21.10
2024-05-09T20:28:04.956Z,21.06
2024-05-09T20:30:52.952Z,21.03
2024-05-09T20:33:39.943Z,20.96
2024-05-09T20:36:29.356Z,20.99
2024-05-09T20:39:15.678Z,21.01
2024-05-09T20:42:03.191Z,21.04
2024-05-09T20:44:49.590Z,21.03
2024-05-09T20:47:38.856Z,21.03
2024-05-09T20:50:35.765Z,21.10
2024-05-09T20:53:27.388Z,21.04
2024-05-09T20:56:14.199Z,21.08
2024-05-09T20:59:00.596Z,21.08
2024-05-09T21:01:49.280Z,21.04
2024-05-09T21:04:35.732Z,21.01
2024-05-09T21:07:23.556Z,20.96
2024-05-09T21:10:15.659Z,20.91
2024-05-09T21:13:07.291Z,20.92
2024-05-09T21:15:54.341Z,20.93
2024-05-09T21:18:41.108Z,20.91
2024-05-09T21:21:27.756Z,20.93
2024-05-09T21:24:14.489Z,20.90
2024-05-09T21:27:00.928Z,20.89
2024-05-09T21:29:47.418Z,20.87
2024-05-09T21:32:35.204Z,20.87
2024-05-09T21:35:21.525Z,20.86
2024-05-09T21:38:08.294Z,20.79
2024-05-09T21:40:54.901Z,20.75
2024-05-09T21:43:41.715Z,20.78
2024-05-09T21:46:28.193Z,20.80
2024-05-09T21:49:17.482Z,20.85
2024-05-09T21:52:04.003Z,20.86
2024-05-09T21:54:50.410Z,20.87
2024-05-09T21:57:36.824Z,20.85
2024-05-09T22:00:29.236Z,20.85
2024-05-09T22:03:21.963Z,20.82
2024-05-09T22:06:09.208Z,20.83
2024-05-09T22:08:55.592Z,20.82
2024-05-09T22:11:42.977Z,20.79
2024-05-09T22:14:29.314Z,20.79
2024-05-09T22:17:15.987Z,20.76
2024-05-09T22:20:02.026Z,20.79
2024-05-09T22:22:48.499Z,20.76
2024-05-09T22:25:34.875Z,20.76
2024-05-09T22:28:21.219Z,20.70
2024-05-09T22:31:09.580Z,20.67
2024-05-09T22:33:56.146Z,20.71
2024-05-09T22:36:42.743Z,20.70
2024-05-09T22:39:29.123Z,20.68
2024-05-09T22:42:15.348Z,20.70
2024-05-09T22:45:01.769Z,20.72
2024-05-09T22:47:48.365Z,20.74
2024-05-09T22:50:34.763Z,20.77
2024-05-09T22:53:24.270Z,20.79
2024-05-09T22:56:11.771Z,20.80
2024-05-09T22:58:58.621Z,20.81
2024-05-09T23:01:51.655Z,20.73
2024-05-09T23:04:39.154Z,20.80
2024-05-09T23:07:25.618Z,20.81
2024-05-09T23:10:17.346Z,20.79
2024-05-09T23:13:11.819Z,20.76
2024-05-09T23:15:59.280Z,20.79
2024-05-09T23:18:45.516Z,20.76
2024-05-09T23:21:31.653Z,20.77
2024-05-09T23:24:18.042Z,20.78
2024-05-09T23:27:04.790Z,20.73
2024-05-09T23:29:51.010Z,20.77
2024-05-09T23:32:37.473Z,20.77
2024-05-09T23:35:26.045Z,20.76
2024-05-09T23:38:12.654Z,20.74
2024-05-09T23:40:59.460Z,20.77
2024-05-09T23:43:45.812Z,20.76
2024-05-09T23:46:32.411Z,20.78
2024-05-09T23:49:18.764Z,20.76
2024-05-09T23:52:06.314Z,20.78
2024-05-09T23:54:52.940Z,20.76
2024-05-09T23:57:39.369Z,20.77
